createdAt,value
2023-12-20T00:00:20.196Z,6.30
2023-12-20T00:02:49.830Z,6.40
2023-12-20T00:05:21.036Z,6.50
2023-12-20T00:07:51.312Z,6.20
2023-12-20T00:10:21.403Z,7.70
2023-12-20T00:12:52.198Z,6.20
2023-12-20T00:15:21.653Z,6.10
2023-12-20T00:17:51.301Z,7.60
2023-12-20T00:20:20.006Z,5.70
2023-12-20T00:22:48.420Z,8.00
2023-12-20T00:25:18.950Z,6.30
2023-12-20T00:27:49.805Z,6.10
2023-12-20T00:32:49.277Z,6.10
2023-12-20T00:40:19.160Z,6.20
2023-12-20T00:42:49.419Z,6.20
2023-12-20T00:45:17.908Z,6.20
2023-12-20T00:47:46.815Z,8.40
2023-12-20T00:50:15.642Z,6.00
2023-12-20T00:52:46.563Z,5.80
2023-12-20T00:55:14.979Z,6.00
2023-12-20T00:57:46.086Z,6.20
2023-12-20T01:00:16.278Z,5.90
2023-12-20T01:02:46.108Z,6.00
2023-12-20T01:05:17.039Z,5.90
2023-12-20T01:07:46.760Z,6.70
2023-12-20T01:10:15.621Z,5.80
2023-12-20T01:12:46.817Z,5.50
2023-12-20T01:17:45.298Z,6.00
2023-12-20T01:20:16.835Z,6.00
2023-12-20T01:22:47.123Z,5.90
2023-12-20T01:25:17.025Z,5.60
2023-12-20T01:27:48.264Z,6.00
2023-12-20T01:30:19.443Z,6.00
2023-12-20T01:32:48.983Z,5.80
2023-12-20T01:35:17.337Z,6.40
2023-12-20T01:37:48.349Z,5.60
2023-12-20T01:40:18.109Z,5.80
2023-12-20T01:42:50.237Z,6.00
2023-12-20T01:45:19.802Z,5.90
2023-12-20T01:50:18.995Z,6.10
2023-12-20T01:52:49.101Z,5.90
2023-12-20T01:55:19.111Z,5.70
2023-12-20T01:57:51.396Z,5.90
2023-12-20T02:00:24.346Z,6.90
2023-12-20T02:02:56.253Z,5.70
2023-12-20T02:05:28.981Z,5.70
2023-12-20T02:07:59.906Z,6.20
2023-12-20T02:10:31.830Z,5.60
2023-12-20T02:13:04.079Z,5.90
2023-12-20T02:15:33.959Z,5.70
2023-12-20T02:18:03.716Z,8.20
2023-12-20T02:20:33.289Z,5.50
2023-12-20T02:23:04.376Z,5.50
2023-12-20T02:25:33.962Z,6.10
2023-12-20T02:28:02.742Z,5.20
2023-12-20T02:30:32.342Z,5.20
2023-12-20T02:33:03.242Z,5.20
2023-12-20T02:35:32.823Z,4.90
2023-12-20T02:38:04.194Z,5.70
2023-12-20T02:40:33.840Z,5.00
2023-12-20T02:43:02.448Z,4.90
2023-12-20T02:45:31.915Z,5.00
2023-12-20T02:48:00.457Z,5.60
2023-12-20T02:50:28.906Z,5.00
2023-12-20T02:52:59.687Z,5.00
2023-12-20T02:55:30.724Z,4.70
2023-12-20T02:57:59.285Z,4.30
2023-12-20T03:00:28.859Z,4.70
2023-12-20T03:02:58.483Z,4.30
2023-12-20T03:05:26.899Z,4.60
2023-12-20T03:07:57.052Z,4.70
2023-12-20T03:10:27.416Z,4.80
2023-12-20T03:12:59.950Z,4.00
2023-12-20T03:15:29.692Z,5.00
2023-12-20T03:18:00.345Z,4.50
2023-12-20T03:20:29.925Z,5.00
2023-12-20T03:22:59.471Z,5.20
2023-12-20T03:25:29.224Z,5.10
2023-12-20T03:28:00.246Z,5.20
2023-12-20T03:30:29.864Z,4.90
2023-12-20T03:32:59.572Z,6.10
2023-12-20T03:35:29.892Z,5.20
2023-12-20T03:38:01.221Z,5.30
2023-12-20T03:40:32.371Z,5.30
2023-12-20T03:43:03.374Z,5.30
2023-12-20T03:45:33.003Z,5.10
2023-12-20T03:48:02.749Z,5.30
2023-12-20T03:50:33.560Z,5.40
2023-12-20T03:53:03.169Z,8.40
2023-12-20T03:55:31.452Z,5.20
2023-12-20T03:57:59.847Z,5.30
2023-12-20T04:00:30.857Z,6.00
2023-12-20T04:03:01.609Z,5.10
2023-12-20T04:05:31.096Z,5.30
2023-12-20T04:08:03.457Z,5.20
2023-12-20T04:13:04.146Z,5.30
2023-12-20T04:15:35.601Z,5.70
2023-12-20T04:18:06.770Z,5.20
2023-12-20T04:20:36.487Z,5.10
2023-12-20T04:23:07.764Z,5.30
2023-12-20T04:25:38.796Z,5.30
2023-12-20T04:28:08.826Z,5.60
2023-12-20T04:30:40.928Z,4.40
2023-12-20T04:33:09.338Z,5.10
2023-12-20T04:38:07.685Z,5.30
2023-12-20T04:40:36.140Z,5.10
2023-12-20T04:43:04.606Z,5.20
2023-12-20T04:45:35.484Z,5.40
2023-12-20T04:48:07.685Z,3.60
2023-12-20T04:50:36.225Z,5.30
2023-12-20T04:53:06.108Z,5.50
2023-12-20T04:55:34.781Z,5.30
2023-12-20T04:58:03.202Z,4.30
2023-12-20T05:00:34.032Z,5.20
2023-12-20T05:03:06.366Z,5.40
2023-12-20T05:10:35.294Z,5.20
2023-12-20T05:13:03.946Z,5.30
2023-12-20T05:15:33.698Z,5.20
2023-12-20T05:18:03.279Z,5.40
2023-12-20T05:20:33.104Z,5.40
2023-12-20T05:23:05.269Z,5.20
2023-12-20T05:25:34.885Z,5.40
2023-12-20T05:28:05.871Z,5.20
2023-12-20T05:30:34.261Z,5.00
2023-12-20T05:33:02.694Z,5.30
2023-12-20T05:35:32.676Z,5.00
2023-12-20T05:38:01.002Z,6.80
2023-12-20T05:42:59.434Z,5.40
2023-12-20T05:45:30.332Z,5.70
2023-12-20T05:48:00.498Z,5.30
2023-12-20T05:50:28.831Z,5.30
2023-12-20T05:52:59.749Z,5.30
2023-12-20T05:55:29.316Z,5.30
2023-12-20T05:57:58.872Z,5.40
2023-12-20T06:00:28.509Z,5.30
2023-12-20T06:02:58.032Z,4.70
2023-12-20T06:05:26.428Z,5.00
2023-12-20T06:07:55.715Z,5.90
2023-12-20T06:10:28.101Z,6.00
2023-12-20T06:12:59.627Z,5.00
2023-12-20T06:15:29.101Z,5.20
2023-12-20T06:17:59.809Z,5.20
2023-12-20T06:20:29.490Z,5.30
2023-12-20T06:23:00.226Z,4.90
2023-12-20T06:25:31.124Z,5.00
2023-12-20T06:28:00.797Z,5.10
2023-12-20T06:30:29.142Z,5.20
2023-12-20T06:32:59.978Z,6.30
2023-12-20T06:35:28.360Z,5.20
2023-12-20T06:37:56.977Z,4.10
2023-12-20T06:40:25.394Z,5.40
2023-12-20T06:43:02.240Z,5.40
2023-12-20T06:45:38.501Z,5.10
2023-12-20T06:48:08.066Z,4.90
2023-12-20T06:50:42.197Z,5.40
2023-12-20T06:53:11.563Z,5.20
2023-12-20T06:55:41.103Z,5.30
2023-12-20T06:58:11.043Z,6.90
2023-12-20T07:00:40.740Z,5.30
2023-12-20T07:03:11.636Z,5.40
2023-12-20T07:05:40.101Z,6.10
2023-12-20T07:08:09.549Z,5.40
2023-12-20T07:10:39.149Z,5.50
2023-12-20T07:13:10.259Z,7.20
2023-12-20T07:15:41.954Z,5.50
2023-12-20T07:18:11.682Z,5.70
2023-12-20T07:20:40.116Z,5.60
2023-12-20T07:23:11.021Z,5.50
2023-12-20T07:25:40.566Z,5.20
2023-12-20T07:30:40.197Z,5.70
2023-12-20T07:33:10.346Z,5.70
2023-12-20T07:35:40.034Z,5.60
2023-12-20T07:38:08.668Z,5.50
2023-12-20T07:40:37.057Z,5.60
2023-12-20T07:43:07.165Z,5.80
2023-12-20T07:45:35.711Z,5.80
2023-12-20T07:48:09.429Z,5.80
2023-12-20T07:50:39.122Z,6.80
2023-12-20T07:55:39.788Z,5.70
2023-12-20T07:58:09.298Z,6.30
2023-12-20T08:00:39.337Z,5.70
2023-12-20T08:03:10.341Z,5.80
2023-12-20T08:05:41.718Z,5.70
2023-12-20T08:08:10.119Z,5.80
2023-12-20T08:10:39.639Z,7.90
2023-12-20T08:13:09.802Z,5.70
2023-12-20T08:15:43.184Z,5.80
2023-12-20T08:18:12.952Z,6.10
2023-12-20T08:20:42.607Z,5.80
2023-12-20T08:23:12.234Z,3.20
2023-12-20T08:25:41.735Z,5.80
2023-12-20T08:28:12.616Z,5.80
2023-12-20T08:30:41.791Z,7.80
2023-12-20T08:33:14.393Z,5.90
2023-12-20T08:35:53.201Z,5.90
2023-12-20T08:50:23.463Z,5.30
2023-12-20T08:52:58.406Z,5.90
2023-12-20T09:08:11.142Z,5.90
2023-12-20T09:13:23.455Z,5.70
2023-12-20T09:15:54.449Z,5.80
2023-12-20T09:18:23.072Z,5.70
2023-12-20T09:20:53.263Z,5.70
2023-12-20T09:25:52.942Z,5.70
2023-12-20T09:28:23.534Z,4.90
2023-12-20T09:30:52.603Z,5.40
2023-12-20T09:33:22.316Z,5.60
2023-12-20T09:35:53.615Z,5.70
2023-12-20T09:43:31.799Z,5.90
2023-12-20T09:46:08.311Z,5.90
2023-12-20T09:48:44.714Z,5.70
2023-12-20T09:51:23.369Z,6.00
2023-12-20T09:59:02.524Z,5.90
2023-12-20T10:01:34.959Z,5.90
2023-12-20T10:04:23.471Z,6.00
2023-12-20T10:07:07.655Z,5.90
2023-12-20T10:14:44.834Z,4.80
2023-12-20T10:17:15.592Z,5.90
2023-12-20T10:19:47.118Z,5.80
2023-12-20T10:22:18.189Z,5.90
2023-12-20T10:24:56.775Z,5.90
2023-12-20T10:30:04.625Z,5.90
2023-12-20T10:35:05.065Z,5.90
2023-12-20T10:37:41.314Z,5.60
2023-12-20T10:42:44.330Z,5.90
2023-12-20T10:50:21.920Z,5.90
2023-12-20T10:52:56.810Z,5.40
2023-12-20T10:55:27.897Z,5.80
2023-12-20T10:58:03.992Z,6.20
2023-12-20T11:00:34.751Z,5.70
2023-12-20T11:03:06.085Z,6.00
2023-12-20T11:05:49.804Z,5.80
2023-12-20T11:08:29.156Z,6.10
2023-12-20T11:11:04.888Z,5.90
2023-12-20T11:13:39.216Z,5.90
2023-12-20T11:16:10.396Z,6.00
2023-12-20T11:18:42.676Z,6.00
2023-12-20T11:21:16.486Z,6.30
2023-12-20T11:27:27.107Z,6.00
2023-12-20T11:30:03.610Z,6.00
2023-12-20T11:32:33.327Z,5.70
2023-12-20T11:35:20.115Z,6.10
2023-12-20T11:37:49.974Z,6.60
2023-12-20T11:40:23.502Z,6.10
2023-12-20T11:42:53.982Z,6.30
2023-12-20T11:45:30.857Z,6.50
2023-12-20T11:48:01.253Z,6.30
2023-12-20T11:50:32.292Z,6.30
2023-12-20T11:53:03.205Z,7.70
2023-12-20T11:58:08.165Z,6.70
2023-12-20T12:13:12.046Z,7.50
2023-12-20T12:15:46.496Z,7.90
2023-12-20T12:18:20.014Z,7.20
2023-12-20T12:23:27.248Z,7.10
2023-12-20T12:26:00.244Z,6.90
2023-12-20T12:31:03.161Z,6.80
2023-12-20T12:33:32.656Z,6.80
2023-12-20T12:36:03.812Z,6.70
2023-12-20T12:38:33.502Z,6.60
2023-12-20T12:41:03.797Z,6.60
2023-12-20T12:43:33.483Z,6.90
2023-12-20T12:46:10.045Z,6.70
2023-12-20T12:48:43.251Z,6.80
2023-12-20T12:51:16.077Z,6.80
2023-12-20T12:53:44.593Z,6.80
2023-12-20T12:56:16.574Z,6.90
2023-12-20T13:01:17.233Z,6.80
2023-12-20T13:03:48.321Z,6.80
2023-12-20T13:08:52.018Z,7.00
2023-12-20T13:13:50.668Z,6.90
2023-12-20T13:18:50.810Z,6.70
2023-12-20T13:23:51.435Z,6.80
2023-12-20T13:26:20.999Z,6.70
2023-12-20T13:28:50.567Z,6.70
2023-12-20T13:31:21.965Z,6.50
2023-12-20T13:33:50.578Z,6.40
2023-12-20T13:38:51.519Z,6.20
2023-12-20T13:41:21.196Z,7.00
2023-12-20T13:43:49.414Z,5.70
2023-12-20T13:46:21.107Z,5.70
2023-12-20T13:48:49.539Z,5.30
2023-12-20T13:51:20.469Z,5.60
2023-12-20T13:53:50.796Z,5.30
2023-12-20T13:58:52.885Z,5.30
2023-12-20T14:01:25.518Z,5.30
2023-12-20T14:03:56.370Z,5.10
2023-12-20T14:13:59.920Z,5.10
2023-12-20T14:16:30.786Z,4.90
2023-12-20T14:19:00.620Z,5.00
2023-12-20T14:23:57.639Z,5.10
2023-12-20T14:26:29.059Z,6.20
2023-12-20T14:28:58.666Z,4.70
2023-12-20T14:31:28.219Z,5.20
2023-12-20T14:34:00.836Z,5.10
2023-12-20T14:41:32.950Z,6.00
2023-12-20T14:44:05.902Z,5.10
2023-12-20T14:46:38.168Z,5.70
2023-12-20T14:49:10.697Z,6.10
2023-12-20T14:51:41.502Z,5.10
2023-12-20T14:54:11.658Z,6.00
2023-12-20T14:56:41.354Z,5.20
2023-12-20T15:01:43.300Z,4.70
2023-12-20T15:04:15.139Z,5.10
2023-12-20T15:06:45.873Z,5.30
2023-12-20T15:11:45.197Z,4.90
2023-12-20T15:14:16.329Z,5.60
2023-12-20T15:19:18.662Z,5.10
2023-12-20T15:24:21.959Z,5.20
2023-12-20T15:29:21.265Z,5.20
2023-12-20T15:31:51.504Z,5.20
2023-12-20T15:34:24.246Z,5.10
2023-12-20T15:41:54.661Z,5.20
2023-12-20T15:46:55.607Z,5.30
2023-12-20T15:49:25.732Z,5.20
2023-12-20T15:59:25.233Z,5.20
2023-12-20T16:01:55.182Z,7.00
2023-12-20T16:04:25.058Z,6.30
2023-12-20T16:09:25.772Z,5.60
2023-12-20T16:11:56.444Z,5.60
2023-12-20T16:14:30.948Z,5.80
2023-12-20T16:17:01.099Z,5.60
2023-12-20T16:19:31.934Z,6.40
2023-12-20T16:32:09.058Z,5.50
2023-12-20T16:34:40.346Z,5.70
2023-12-20T16:39:39.785Z,5.60
2023-12-20T16:44:44.306Z,6.30
2023-12-20T16:47:14.294Z,5.80
2023-12-20T16:49:45.442Z,5.90
2023-12-20T16:54:45.389Z,6.10
2023-12-20T16:57:16.119Z,6.00
2023-12-20T16:59:45.841Z,6.00
2023-12-20T17:04:48.415Z,6.10
2023-12-20T17:07:18.085Z,6.30
2023-12-20T17:09:49.759Z,6.10
2023-12-20T17:17:21.723Z,6.00
2023-12-20T17:19:59.132Z,6.10
2023-12-20T17:25:12.781Z,6.10
2023-12-20T17:30:14.199Z,6.10
2023-12-20T17:35:43.343Z,6.00
2023-12-20T17:41:21.890Z,6.00
2023-12-20T17:43:53.228Z,6.00
2023-12-20T17:46:23.545Z,5.90
2023-12-20T17:51:25.885Z,6.30
2023-12-20T17:53:57.813Z,5.60
2023-12-20T18:01:31.708Z,6.10
2023-12-20T18:04:02.377Z,6.10
2023-12-20T18:11:35.205Z,5.90
2023-12-20T18:14:08.599Z,6.20
2023-12-20T18:16:40.015Z,6.40
2023-12-20T18:19:10.423Z,6.70
2023-12-20T18:21:46.372Z,6.20
2023-12-20T18:24:15.447Z,6.20
2023-12-20T18:26:47.692Z,6.00
2023-12-20T18:31:49.980Z,6.10
2023-12-20T18:34:23.093Z,6.20
2023-12-20T18:36:55.763Z,6.10
2023-12-20T18:41:59.912Z,5.70
2023-12-20T18:44:30.333Z,6.20
2023-12-20T18:46:59.096Z,6.30
2023-12-20T18:52:10.628Z,6.00
2023-12-20T18:54:42.447Z,6.10
2023-12-20T18:59:44.200Z,6.60
2023-12-20T19:02:15.845Z,7.50
2023-12-20T19:04:46.889Z,6.30
2023-12-20T19:07:19.618Z,5.20
2023-12-20T19:09:51.051Z,6.10
2023-12-20T19:12:23.007Z,6.60
2023-12-20T19:14:52.796Z,6.30
2023-12-20T19:19:59.238Z,6.00
2023-12-20T19:30:10.963Z,5.30
2023-12-20T19:32:41.823Z,6.30
2023-12-20T19:35:12.026Z,6.50
2023-12-20T19:37:44.500Z,6.00
2023-12-20T19:40:14.114Z,6.60
2023-12-20T19:42:43.348Z,6.40
2023-12-20T19:45:16.333Z,6.10
2023-12-20T19:47:51.543Z,6.00
2023-12-20T19:50:27.788Z,6.40
2023-12-20T19:53:00.587Z,6.40
2023-12-20T19:55:31.630Z,6.40
2023-12-20T19:58:01.902Z,6.30
2023-12-20T20:00:42.008Z,6.50
2023-12-20T20:03:20.135Z,6.30
2023-12-20T20:05:50.605Z,6.40
2023-12-20T20:08:22.310Z,6.40
2023-12-20T20:13:21.862Z,6.50
2023-12-20T20:15:51.650Z,6.50
2023-12-20T20:18:22.402Z,6.30
2023-12-20T20:23:28.981Z,6.50
2023-12-20T20:26:00.642Z,6.60
2023-12-20T20:28:30.060Z,6.30
2023-12-20T20:31:00.891Z,7.70
2023-12-20T20:33:32.044Z,6.50
2023-12-20T20:36:03.768Z,6.20
2023-12-20T20:38:35.147Z,6.60
2023-12-20T20:41:05.457Z,7.60
2023-12-20T20:48:44.635Z,6.60
2023-12-20T20:51:21.104Z,6.60
2023-12-20T20:54:11.629Z,6.80
2023-12-20T20:56:47.100Z,6.50
2023-12-20T20:59:17.332Z,6.40
2023-12-20T21:01:48.455Z,6.70
2023-12-20T21:04:19.961Z,6.70
2023-12-20T21:06:49.910Z,7.70
2023-12-20T21:09:22.976Z,7.80
2023-12-20T21:11:52.888Z,6.70
2023-12-20T21:14:24.484Z,4.60
2023-12-20T21:19:24.592Z,6.30
2023-12-20T21:24:29.467Z,6.70
2023-12-20T21:32:02.531Z,6.70
2023-12-20T21:37:02.318Z,7.10
2023-12-20T21:39:34.127Z,9.30
2023-12-20T21:42:05.241Z,6.80
2023-12-20T21:44:35.405Z,6.70
2023-12-20T21:47:04.440Z,6.50
2023-12-20T21:49:34.439Z,6.00
2023-12-20T21:52:06.334Z,6.70
2023-12-20T21:54:39.699Z,8.10
2023-12-20T21:57:09.843Z,6.40
2023-12-20T21:59:42.340Z,6.30
2023-12-20T22:02:16.531Z,6.80
2023-12-20T22:07:16.129Z,6.90
2023-12-20T22:09:49.225Z,6.80
2023-12-20T22:12:20.172Z,6.90
2023-12-20T22:22:23.649Z,6.90
2023-12-20T22:24:55.055Z,7.10
2023-12-20T22:27:24.841Z,7.80
2023-12-20T22:29:54.655Z,7.60
2023-12-20T22:32:24.206Z,7.90
2023-12-20T22:34:52.714Z,7.80
2023-12-20T22:37:22.399Z,7.00
2023-12-20T22:39:53.220Z,7.00
2023-12-20T22:42:22.492Z,6.90
2023-12-20T22:44:56.135Z,7.30
2023-12-20T22:47:27.305Z,7.50
2023-12-20T22:49:58.382Z,8.10
2023-12-20T22:52:28.813Z,7.10
2023-12-20T22:55:01.401Z,7.30
2023-12-20T22:57:31.178Z,7.30
2023-12-20T23:00:02.122Z,7.10
2023-12-20T23:02:36.631Z,8.60
2023-12-20T23:05:07.723Z,6.50
2023-12-20T23:07:36.924Z,7.30
2023-12-20T23:10:10.925Z,7.00
2023-12-20T23:15:12.920Z,7.40
2023-12-20T23:17:44.109Z,7.30
2023-12-20T23:20:15.152Z,6.50
2023-12-20T23:22:45.512Z,7.30
2023-12-20T23:25:17.834Z,7.20
2023-12-20T23:27:51.846Z,7.40
2023-12-20T23:30:22.413Z,7.20
2023-12-20T23:32:54.208Z,7.50
2023-12-20T23:35:24.192Z,7.50
2023-12-20T23:37:53.980Z,5.00
2023-12-20T23:40:30.141Z,7.30
2023-12-20T23:42:59.110Z,7.60
2023-12-20T23:45:29.004Z,7.20
2023-12-20T23:48:00.532Z,7.50
2023-12-20T23:50:30.285Z,7.10
2023-12-20T23:53:02.896Z,7.20
2023-12-20T23:55:37.788Z,7.30
2023-12-20T23:58:07.831Z,7.40
